II14 weather

Beck Private Airport
Huntington, Indiana, United States

Public forecast

Using degrees Fahrenheit for public forecast. Weather courtesy of forecast.io.

METAR (pilot weather report)

Closest report is Huntington Municipal Airport, 8.1 nm (14.9 km) SE. Retrieved 2019/04/25 23:35 UTC (0 seconds ago):

KHHG 252335Z AUTO 08004KT 5SM -RA SCT004 BKN010 OVC021 15/14 A2966 RMK AO2 LTG DSNT SW P0016 T01490141

TAF (pilot weather forecast)

Closest forecast is Fort Wayne International Airport, 16.7 nm (30.9 km) E. Retrieved 2019/04/25 18:45 UTC (5 hours ago):

TAF KFWA 251742Z 2518/2618 07004KT P6SM VCSH BKN013 OVC040 FM252200 11005KT 4SM SHRA BR OVC007 FM260600 33012G20KT 5SM SHRA BR OVC006 FM261400 33015G25KT P6SM BKN020 FM261700 34012G18KT P6SM SCT035